sensor_id;sensor_type;location;lat;lon;timestamp;temperature;humidity
17092;DHT22;8661;45.700;4.880;2023-11-19T00:01:38;7.70;99.90
17092;DHT22;8661;45.700;4.880;2023-11-19T00:04:05;7.70;99.90
17092;DHT22;8661;45.700;4.880;2023-11-19T00:06:32;7.70;99.90
17092;DHT22;8661;45.700;4.880;2023-11-19T00:08:59;7.70;99.90
17092;DHT22;8661;45.700;4.880;2023-11-19T00:11:26;7.60;99.90
17092;DHT22;8661;45.700;4.880;2023-11-19T00:13:53;7.50;99.90
17092;DHT22;8661;45.700;4.880;2023-11-19T00:16:20;7.50;99.90
17092;DHT22;8661;45.700;4.880;2023-11-19T00:18:47;7.50;99.90
17092;DHT22;8661;45.700;4.880;2023-11-19T00:21:15;7.50;99.90
17092;DHT22;8661;45.700;4.880;2023-11-19T00:23:42;7.50;99.90
17092;DHT22;8661;45.700;4.880;2023-11-19T00:26:10;7.50;99.90
17092;DHT22;8661;45.700;4.880;2023-11-19T00:28:39;7.50;99.90
17092;DHT22;8661;45.700;4.880;2023-11-19T00:31:06;7.40;99.90
17092;DHT22;8661;45.700;4.880;2023-11-19T00:33:33;7.40;99.90
17092;DHT22;8661;45.700;4.880;2023-11-19T00:35:59;7.40;99.90
17092;DHT22;8661;45.700;4.880;2023-11-19T00:38:26;7.40;99.90
17092;DHT22;8661;45.700;4.880;2023-11-19T00:40:53;7.50;99.90
17092;DHT22;8661;45.700;4.880;2023-11-19T00:43:21;7.50;99.90
17092;DHT22;8661;45.700;4.880;2023-11-19T00:45:49;7.50;99.90
17092;DHT22;8661;45.700;4.880;2023-11-19T00:48:16;7.50;99.90
17092;DHT22;8661;45.700;4.880;2023-11-19T00:50:43;7.50;99.90
17092;DHT22;8661;45.700;4.880;2023-11-19T00:53:11;7.50;99.90
17092;DHT22;8661;45.700;4.880;2023-11-19T00:55:38;7.50;99.90
17092;DHT22;8661;45.700;4.880;2023-11-19T00:58:05;7.50;99.90
17092;DHT22;8661;45.700;4.880;2023-11-19T01:00:33;7.50;99.90
17092;DHT22;8661;45.700;4.880;2023-11-19T01:03:00;7.50;99.90
17092;DHT22;8661;45.700;4.880;2023-11-19T01:05:27;7.60;99.90
17092;DHT22;8661;45.700;4.880;2023-11-19T01:07:54;7.60;99.90
17092;DHT22;8661;45.700;4.880;2023-11-19T01:10:21;7.80;99.90
17092;DHT22;8661;45.700;4.880;2023-11-19T01:12:48;7.80;99.90
17092;DHT22;8661;45.700;4.880;2023-11-19T01:15:15;7.90;99.90
17092;DHT22;8661;45.700;4.880;2023-11-19T01:17:45;7.90;99.90
17092;DHT22;8661;45.700;4.880;2023-11-19T01:20:12;8.00;99.90
17092;DHT22;8661;45.700;4.880;2023-11-19T01:22:40;8.00;99.90
17092;DHT22;8661;45.700;4.880;2023-11-19T01:25:08;8.10;99.90
17092;DHT22;8661;45.700;4.880;2023-11-19T01:27:35;8.10;99.90
17092;DHT22;8661;45.700;4.880;2023-11-19T01:30:02;8.20;99.90
17092;DHT22;8661;45.700;4.880;2023-11-19T01:32:29;8.20;99.90
17092;DHT22;8661;45.700;4.880;2023-11-19T01:34:57;8.30;99.90
17092;DHT22;8661;45.700;4.880;2023-11-19T01:37:24;8.30;99.90
17092;DHT22;8661;45.700;4.880;2023-11-19T01:39:51;8.40;99.90
17092;DHT22;8661;45.700;4.880;2023-11-19T01:42:18;8.40;99.90
17092;DHT22;8661;45.700;4.880;2023-11-19T01:44:56;8.40;99.90
17092;DHT22;8661;45.700;4.880;2023-11-19T01:47:24;8.50;99.90
17092;DHT22;8661;45.700;4.880;2023-11-19T01:49:51;8.50;99.90
17092;DHT22;8661;45.700;4.880;2023-11-19T01:52:20;8.60;99.90
17092;DHT22;8661;45.700;4.880;2023-11-19T01:54:47;8.60;99.90
17092;DHT22;8661;45.700;4.880;2023-11-19T01:57:15;8.60;99.90
17092;DHT22;8661;45.700;4.880;2023-11-19T01:59:42;8.70;99.90
17092;DHT22;8661;45.700;4.880;2023-11-19T02:02:09;8.70;99.90
17092;DHT22;8661;45.700;4.880;2023-11-19T02:04:38;8.70;99.90
17092;DHT22;8661;45.700;4.880;2023-11-19T02:07:06;8.70;99.90
17092;DHT22;8661;45.700;4.880;2023-11-19T02:09:36;8.80;99.90
17092;DHT22;8661;45.700;4.880;2023-11-19T02:12:04;8.80;99.90
17092;DHT22;8661;45.700;4.880;2023-11-19T02:14:30;8.90;99.90
17092;DHT22;8661;45.700;4.880;2023-11-19T02:16:58;8.90;99.90
17092;DHT22;8661;45.700;4.880;2023-11-19T02:19:25;8.90;99.90
17092;DHT22;8661;45.700;4.880;2023-11-19T02:21:51;9.00;99.90
17092;DHT22;8661;45.700;4.880;2023-11-19T02:24:20;9.00;99.90
17092;DHT22;8661;45.700;4.880;2023-11-19T02:26:56;9.00;99.90
17092;DHT22;8661;45.700;4.880;2023-11-19T02:29:29;9.00;99.90
17092;DHT22;8661;45.700;4.880;2023-11-19T02:31:56;9.00;99.90
17092;DHT22;8661;45.700;4.880;2023-11-19T02:34:23;9.10;99.90
17092;DHT22;8661;45.700;4.880;2023-11-19T02:36:50;9.10;99.90
17092;DHT22;8661;45.700;4.880;2023-11-19T02:39:19;9.10;99.90
17092;DHT22;8661;45.700;4.880;2023-11-19T02:41:47;9.20;99.90
17092;DHT22;8661;45.700;4.880;2023-11-19T02:44:16;9.20;99.90
17092;DHT22;8661;45.700;4.880;2023-11-19T02:46:44;9.20;99.90
17092;DHT22;8661;45.700;4.880;2023-11-19T02:49:14;9.20;99.90
17092;DHT22;8661;45.700;4.880;2023-11-19T02:51:40;9.20;99.90
17092;DHT22;8661;45.700;4.880;2023-11-19T02:54:07;9.20;99.90
17092;DHT22;8661;45.700;4.880;2023-11-19T02:56:35;9.20;99.90
17092;DHT22;8661;45.700;4.880;2023-11-19T02:59:04;9.20;99.90
17092;DHT22;8661;45.700;4.880;2023-11-19T03:01:40;9.20;99.90
17092;DHT22;8661;45.700;4.880;2023-11-19T03:04:10;9.20;99.90
17092;DHT22;8661;45.700;4.880;2023-11-19T03:06:38;9.20;99.90
17092;DHT22;8661;45.700;4.880;2023-11-19T03:09:05;9.20;99.90
17092;DHT22;8661;45.700;4.880;2023-11-19T03:11:33;9.10;99.90
17092;DHT22;8661;45.700;4.880;2023-11-19T03:14:00;9.10;99.90
17092;DHT22;8661;45.700;4.880;2023-11-19T03:16:28;9.10;99.90
17092;DHT22;8661;45.700;4.880;2023-11-19T03:18:55;9.10;99.90
17092;DHT22;8661;45.700;4.880;2023-11-19T03:21:28;9.20;99.90
17092;DHT22;8661;45.700;4.880;2023-11-19T03:23:56;9.20;99.90
17092;DHT22;8661;45.700;4.880;2023-11-19T03:26:23;9.20;99.90
17092;DHT22;8661;45.700;4.880;2023-11-19T03:28:50;9.20;99.90
17092;DHT22;8661;45.700;4.880;2023-11-19T03:31:17;9.30;99.90
17092;DHT22;8661;45.700;4.880;2023-11-19T03:33:44;9.30;99.90
17092;DHT22;8661;45.700;4.880;2023-11-19T03:36:12;9.20;99.90
17092;DHT22;8661;45.700;4.880;2023-11-19T03:38:40;9.30;99.90
17092;DHT22;8661;45.700;4.880;2023-11-19T03:41:11;9.30;99.90
17092;DHT22;8661;45.700;4.880;2023-11-19T03:43:38;9.30;99.90
17092;DHT22;8661;45.700;4.880;2023-11-19T03:46:15;9.30;99.90
17092;DHT22;8661;45.700;4.880;2023-11-19T03:48:41;9.30;99.90
17092;DHT22;8661;45.700;4.880;2023-11-19T03:51:09;9.40;99.90
17092;DHT22;8661;45.700;4.880;2023-11-19T03:53:37;9.40;99.90
17092;DHT22;8661;45.700;4.880;2023-11-19T03:56:06;9.40;99.90
17092;DHT22;8661;45.700;4.880;2023-11-19T03:58:34;9.40;99.90
17092;DHT22;8661;45.700;4.880;2023-11-19T04:01:03;9.50;99.90
17092;DHT22;8661;45.700;4.880;2023-11-19T04:03:30;9.50;99.90
17092;DHT22;8661;45.700;4.880;2023-11-19T04:05:57;9.50;99.90
17092;DHT22;8661;45.700;4.880;2023-11-19T04:08:24;9.60;99.90
17092;DHT22;8661;45.700;4.880;2023-11-19T04:10:51;9.60;99.90
17092;DHT22;8661;45.700;4.880;2023-11-19T04:13:20;9.60;99.90
17092;DHT22;8661;45.700;4.880;2023-11-19T04:15:49;9.60;99.90
17092;DHT22;8661;45.700;4.880;2023-11-19T04:18:16;9.60;99.90
17092;DHT22;8661;45.700;4.880;2023-11-19T04:20:43;9.60;99.90
17092;DHT22;8661;45.700;4.880;2023-11-19T04:23:09;9.60;99.90
17092;DHT22;8661;45.700;4.880;2023-11-19T04:25:37;9.60;99.90
17092;DHT22;8661;45.700;4.880;2023-11-19T04:28:03;9.70;99.90
17092;DHT22;8661;45.700;4.880;2023-11-19T04:30:32;9.60;99.90
17092;DHT22;8661;45.700;4.880;2023-11-19T04:33:00;9.70;99.90
17092;DHT22;8661;45.700;4.880;2023-11-19T04:35:28;9.60;99.90
17092;DHT22;8661;45.700;4.880;2023-11-19T04:37:55;9.70;99.90
17092;DHT22;8661;45.700;4.880;2023-11-19T04:40:23;9.70;99.90
17092;DHT22;8661;45.700;4.880;2023-11-19T04:42:51;9.70;99.90
17092;DHT22;8661;45.700;4.880;2023-11-19T04:45:18;9.70;99.90
17092;DHT22;8661;45.700;4.880;2023-11-19T04:47:47;9.70;99.90
17092;DHT22;8661;45.700;4.880;2023-11-19T04:50:15;9.80;99.90
17092;DHT22;8661;45.700;4.880;2023-11-19T04:52:42;9.80;99.90
17092;DHT22;8661;45.700;4.880;2023-11-19T04:55:10;9.80;99.90
17092;DHT22;8661;45.700;4.880;2023-11-19T04:57:39;9.80;99.90
17092;DHT22;8661;45.700;4.880;2023-11-19T05:00:07;9.70;99.90
17092;DHT22;8661;45.700;4.880;2023-11-19T05:02:35;9.70;99.90
17092;DHT22;8661;45.700;4.880;2023-11-19T05:05:04;9.70;99.90
17092;DHT22;8661;45.700;4.880;2023-11-19T05:07:33;9.70;99.90
17092;DHT22;8661;45.700;4.880;2023-11-19T05:09:59;9.70;99.90
17092;DHT22;8661;45.700;4.880;2023-11-19T05:12:26;9.70;99.90
17092;DHT22;8661;45.700;4.880;2023-11-19T05:14:53;9.70;99.90
17092;DHT22;8661;45.700;4.880;2023-11-19T05:17:20;9.70;99.90
17092;DHT22;8661;45.700;4.880;2023-11-19T05:19:47;9.60;99.90
17092;DHT22;8661;45.700;4.880;2023-11-19T05:22:16;9.60;99.90
17092;DHT22;8661;45.700;4.880;2023-11-19T05:24:43;9.60;99.90
17092;DHT22;8661;45.700;4.880;2023-11-19T05:27:11;9.70;99.90
17092;DHT22;8661;45.700;4.880;2023-11-19T05:29:39;9.70;99.90
17092;DHT22;8661;45.700;4.880;2023-11-19T05:32:07;9.70;99.90
17092;DHT22;8661;45.700;4.880;2023-11-19T05:34:33;9.70;99.90
17092;DHT22;8661;45.700;4.880;2023-11-19T05:37:00;9.70;99.90
17092;DHT22;8661;45.700;4.880;2023-11-19T05:39:29;9.70;99.90
17092;DHT22;8661;45.700;4.880;2023-11-19T05:41:56;9.80;99.90
17092;DHT22;8661;45.700;4.880;2023-11-19T05:44:23;9.70;99.90
17092;DHT22;8661;45.700;4.880;2023-11-19T05:46:50;9.70;99.90
17092;DHT22;8661;45.700;4.880;2023-11-19T05:49:16;9.70;99.90
17092;DHT22;8661;45.700;4.880;2023-11-19T05:51:43;9.80;99.90
17092;DHT22;8661;45.700;4.880;2023-11-19T05:54:11;9.70;99.90
17092;DHT22;8661;45.700;4.880;2023-11-19T05:56:40;9.70;99.90
17092;DHT22;8661;45.700;4.880;2023-11-19T05:59:07;9.70;99.90
17092;DHT22;8661;45.700;4.880;2023-11-19T06:01:40;9.70;99.90
17092;DHT22;8661;45.700;4.880;2023-11-19T06:04:08;9.70;99.90
17092;DHT22;8661;45.700;4.880;2023-11-19T06:06:35;9.60;99.90
17092;DHT22;8661;45.700;4.880;2023-11-19T06:09:02;9.60;99.90
17092;DHT22;8661;45.700;4.880;2023-11-19T06:11:32;9.60;99.90
17092;DHT22;8661;45.700;4.880;2023-11-19T06:14:00;9.60;99.90
17092;DHT22;8661;45.700;4.880;2023-11-19T06:16:27;9.60;99.90
17092;DHT22;8661;45.700;4.880;2023-11-19T06:18:54;9.60;99.90
17092;DHT22;8661;45.700;4.880;2023-11-19T06:21:21;9.70;99.90
17092;DHT22;8661;45.700;4.880;2023-11-19T06:23:48;9.60;99.90
17092;DHT22;8661;45.700;4.880;2023-11-19T06:26:17;9.60;99.90
17092;DHT22;8661;45.700;4.880;2023-11-19T06:28:44;9.60;99.90
17092;DHT22;8661;45.700;4.880;2023-11-19T06:31:13;9.60;99.90
17092;DHT22;8661;45.700;4.880;2023-11-19T06:33:41;9.60;99.90
17092;DHT22;8661;45.700;4.880;2023-11-19T06:36:08;9.70;99.90
17092;DHT22;8661;45.700;4.880;2023-11-19T06:38:36;9.70;99.90
17092;DHT22;8661;45.700;4.880;2023-11-19T06:41:07;9.70;99.90
17092;DHT22;8661;45.700;4.880;2023-11-19T06:43:34;9.60;99.90
17092;DHT22;8661;45.700;4.880;2023-11-19T06:46:01;9.60;99.90
17092;DHT22;8661;45.700;4.880;2023-11-19T06:48:29;9.70;99.90
17092;DHT22;8661;45.700;4.880;2023-11-19T06:50:57;9.70;99.90
17092;DHT22;8661;45.700;4.880;2023-11-19T06:53:24;9.70;99.90
17092;DHT22;8661;45.700;4.880;2023-11-19T06:55:53;9.70;99.90
17092;DHT22;8661;45.700;4.880;2023-11-19T06:58:20;9.70;99.90
17092;DHT22;8661;45.700;4.880;2023-11-19T07:00:47;9.70;99.90
17092;DHT22;8661;45.700;4.880;2023-11-19T07:03:15;9.70;99.90
17092;DHT22;8661;45.700;4.880;2023-11-19T07:05:43;9.70;99.90
17092;DHT22;8661;45.700;4.880;2023-11-19T07:08:10;9.80;99.90
17092;DHT22;8661;45.700;4.880;2023-11-19T07:10:37;9.90;99.90
17092;DHT22;8661;45.700;4.880;2023-11-19T07:13:04;10.00;99.90
17092;DHT22;8661;45.700;4.880;2023-11-19T07:15:31;10.00;99.90
17092;DHT22;8661;45.700;4.880;2023-11-19T07:17:59;10.10;99.90
17092;DHT22;8661;45.700;4.880;2023-11-19T07:20:26;10.10;99.90
17092;DHT22;8661;45.700;4.880;2023-11-19T07:22:54;10.20;99.90
17092;DHT22;8661;45.700;4.880;2023-11-19T07:25:22;10.30;99.90
17092;DHT22;8661;45.700;4.880;2023-11-19T07:27:51;10.40;99.90
17092;DHT22;8661;45.700;4.880;2023-11-19T07:30:18;10.40;99.90
17092;DHT22;8661;45.700;4.880;2023-11-19T07:32:45;10.40;99.90
17092;DHT22;8661;45.700;4.880;2023-11-19T07:35:12;10.40;99.90
17092;DHT22;8661;45.700;4.880;2023-11-19T07:37:39;10.50;99.90
17092;DHT22;8661;45.700;4.880;2023-11-19T07:40:09;10.60;99.90
17092;DHT22;8661;45.700;4.880;2023-11-19T07:42:37;10.60;99.90
17092;DHT22;8661;45.700;4.880;2023-11-19T07:45:04;10.60;99.90
17092;DHT22;8661;45.700;4.880;2023-11-19T07:47:32;10.70;99.90
17092;DHT22;8661;45.700;4.880;2023-11-19T07:50:05;10.80;99.90
17092;DHT22;8661;45.700;4.880;2023-11-19T07:52:32;10.90;99.90
17092;DHT22;8661;45.700;4.880;2023-11-19T07:55:00;11.20;99.90
17092;DHT22;8661;45.700;4.880;2023-11-19T07:57:29;11.50;99.90
17092;DHT22;8661;45.700;4.880;2023-11-19T07:59:58;11.60;99.90
17092;DHT22;8661;45.700;4.880;2023-11-19T08:02:26;11.60;99.90
17092;DHT22;8661;45.700;4.880;2023-11-19T08:04:54;11.60;99.90
17092;DHT22;8661;45.700;4.880;2023-11-19T08:07:22;11.50;99.90
17092;DHT22;8661;45.700;4.880;2023-11-19T08:10:06;11.60;99.90
17092;DHT22;8661;45.700;4.880;2023-11-19T08:12:49;11.60;99.90
17092;DHT22;8661;45.700;4.880;2023-11-19T08:15:17;11.60;99.90
17092;DHT22;8661;45.700;4.880;2023-11-19T08:17:44;11.70;99.90
17092;DHT22;8661;45.700;4.880;2023-11-19T08:20:13;11.70;99.90
17092;DHT22;8661;45.700;4.880;2023-11-19T08:22:41;11.70;99.90
17092;DHT22;8661;45.700;4.880;2023-11-19T08:25:09;11.80;99.90
17092;DHT22;8661;45.700;4.880;2023-11-19T08:27:37;11.80;99.90
17092;DHT22;8661;45.700;4.880;2023-11-19T08:30:07;11.90;99.90
17092;DHT22;8661;45.700;4.880;2023-11-19T08:32:34;11.90;99.90
17092;DHT22;8661;45.700;4.880;2023-11-19T08:35:02;11.90;99.90
17092;DHT22;8661;45.700;4.880;2023-11-19T08:37:29;12.00;99.90
17092;DHT22;8661;45.700;4.880;2023-11-19T08:39:56;12.00;99.90
17092;DHT22;8661;45.700;4.880;2023-11-19T08:42:23;12.10;99.90
17092;DHT22;8661;45.700;4.880;2023-11-19T08:44:50;12.20;99.90
17092;DHT22;8661;45.700;4.880;2023-11-19T08:47:22;12.20;99.90
17092;DHT22;8661;45.700;4.880;2023-11-19T08:49:50;12.20;99.90
17092;DHT22;8661;45.700;4.880;2023-11-19T08:52:20;12.30;99.90
17092;DHT22;8661;45.700;4.880;2023-11-19T08:54:47;12.40;99.90
17092;DHT22;8661;45.700;4.880;2023-11-19T08:57:14;12.50;99.90
17092;DHT22;8661;45.700;4.880;2023-11-19T08:59:41;12.50;99.90
17092;DHT22;8661;45.700;4.880;2023-11-19T09:02:09;12.60;99.90
17092;DHT22;8661;45.700;4.880;2023-11-19T09:04:37;12.70;99.90
17092;DHT22;8661;45.700;4.880;2023-11-19T09:07:04;12.90;99.90
17092;DHT22;8661;45.700;4.880;2023-11-19T09:09:31;13.00;99.90
17092;DHT22;8661;45.700;4.880;2023-11-19T09:12:01;13.20;99.90
17092;DHT22;8661;45.700;4.880;2023-11-19T09:14:28;13.30;99.90
17092;DHT22;8661;45.700;4.880;2023-11-19T09:16:56;13.30;99.90
17092;DHT22;8661;45.700;4.880;2023-11-19T09:19:23;13.40;99.90
17092;DHT22;8661;45.700;4.880;2023-11-19T09:21:53;13.50;99.90
17092;DHT22;8661;45.700;4.880;2023-11-19T09:24:20;13.60;99.90
17092;DHT22;8661;45.700;4.880;2023-11-19T09:26:48;13.70;99.90
17092;DHT22;8661;45.700;4.880;2023-11-19T09:29:15;13.70;99.90
17092;DHT22;8661;45.700;4.880;2023-11-19T09:31:42;13.80;99.90
17092;DHT22;8661;45.700;4.880;2023-11-19T09:34:10;13.90;99.90
17092;DHT22;8661;45.700;4.880;2023-11-19T09:36:51;13.70;99.90
17092;DHT22;8661;45.700;4.880;2023-11-19T09:39:26;13.70;99.90
17092;DHT22;8661;45.700;4.880;2023-11-19T09:41:54;13.80;99.90
17092;DHT22;8661;45.700;4.880;2023-11-19T09:44:23;13.90;99.90
17092;DHT22;8661;45.700;4.880;2023-11-19T09:46:52;13.90;99.90
17092;DHT22;8661;45.700;4.880;2023-11-19T09:49:21;13.90;99.90
17092;DHT22;8661;45.700;4.880;2023-11-19T09:51:50;14.00;99.90
17092;DHT22;8661;45.700;4.880;2023-11-19T09:54:17;14.00;99.90
17092;DHT22;8661;45.700;4.880;2023-11-19T09:56:46;14.10;99.90
17092;DHT22;8661;45.700;4.880;2023-11-19T09:59:13;14.20;99.90
17092;DHT22;8661;45.700;4.880;2023-11-19T10:01:41;14.40;99.90
17092;DHT22;8661;45.700;4.880;2023-11-19T10:04:10;14.80;99.90
17092;DHT22;8661;45.700;4.880;2023-11-19T10:06:38;15.00;99.90
17092;DHT22;8661;45.700;4.880;2023-11-19T10:09:05;15.20;99.90
17092;DHT22;8661;45.700;4.880;2023-11-19T10:11:32;15.70;99.90
17092;DHT22;8661;45.700;4.880;2023-11-19T10:14:00;16.10;99.90
17092;DHT22;8661;45.700;4.880;2023-11-19T10:16:30;16.20;99.90
17092;DHT22;8661;45.700;4.880;2023-11-19T10:18:58;16.10;99.90
17092;DHT22;8661;45.700;4.880;2023-11-19T10:21:25;16.40;99.90
17092;DHT22;8661;45.700;4.880;2023-11-19T10:23:54;16.50;99.90
17092;DHT22;8661;45.700;4.880;2023-11-19T10:26:22;16.60;99.90
17092;DHT22;8661;45.700;4.880;2023-11-19T10:28:50;16.50;99.90
17092;DHT22;8661;45.700;4.880;2023-11-19T10:31:19;16.50;99.90
17092;DHT22;8661;45.700;4.880;2023-11-19T10:33:50;16.60;99.90
17092;DHT22;8661;45.700;4.880;2023-11-19T10:36:17;16.70;99.90
17092;DHT22;8661;45.700;4.880;2023-11-19T10:38:53;16.80;99.90
17092;DHT22;8661;45.700;4.880;2023-11-19T10:41:27;16.80;99.90
17092;DHT22;8661;45.700;4.880;2023-11-19T10:43:56;16.80;99.90
17092;DHT22;8661;45.700;4.880;2023-11-19T10:46:36;16.60;99.90
17092;DHT22;8661;45.700;4.880;2023-11-19T10:49:03;16.50;99.90
17092;DHT22;8661;45.700;4.880;2023-11-19T10:51:31;16.60;99.90
17092;DHT22;8661;45.700;4.880;2023-11-19T10:54:02;16.60;99.90
17092;DHT22;8661;45.700;4.880;2023-11-19T10:56:31;16.60;99.90
17092;DHT22;8661;45.700;4.880;2023-11-19T10:58:59;16.70;99.90
17092;DHT22;8661;45.700;4.880;2023-11-19T11:01:32;16.70;99.90
17092;DHT22;8661;45.700;4.880;2023-11-19T11:04:00;16.80;99.90
17092;DHT22;8661;45.700;4.880;2023-11-19T11:06:29;17.20;99.90
17092;DHT22;8661;45.700;4.880;2023-11-19T11:08:56;17.70;99.60
17092;DHT22;8661;45.700;4.880;2023-11-19T11:11:24;17.80;98.80
17092;DHT22;8661;45.700;4.880;2023-11-19T11:13:53;17.80;98.60
17092;DHT22;8661;45.700;4.880;2023-11-19T11:16:22;17.70;98.40
17092;DHT22;8661;45.700;4.880;2023-11-19T11:18:52;17.70;98.60
17092;DHT22;8661;45.700;4.880;2023-11-19T11:21:22;17.60;98.70
17092;DHT22;8661;45.700;4.880;2023-11-19T11:27:32;17.50;99.00
17092;DHT22;8661;45.700;4.880;2023-11-19T11:30:24;17.50;99.70
17092;DHT22;8661;45.700;4.880;2023-11-19T11:33:02;17.50;99.70
17092;DHT22;8661;45.700;4.880;2023-11-19T11:35:39;17.40;99.90
17092;DHT22;8661;45.700;4.880;2023-11-19T11:38:10;17.10;99.90
17092;DHT22;8661;45.700;4.880;2023-11-19T11:40:37;17.00;99.90
17092;DHT22;8661;45.700;4.880;2023-11-19T11:43:04;17.00;99.90
17092;DHT22;8661;45.700;4.880;2023-11-19T11:45:38;17.00;99.90
17092;DHT22;8661;45.700;4.880;2023-11-19T11:48:13;16.80;99.90
17092;DHT22;8661;45.700;4.880;2023-11-19T11:50:53;16.70;99.90
17092;DHT22;8661;45.700;4.880;2023-11-19T11:53:21;16.50;99.90
17092;DHT22;8661;45.700;4.880;2023-11-19T11:56:02;16.40;99.90
17092;DHT22;8661;45.700;4.880;2023-11-19T11:58:34;16.20;99.90
17092;DHT22;8661;45.700;4.880;2023-11-19T12:01:03;16.10;99.90
17092;DHT22;8661;45.700;4.880;2023-11-19T12:03:34;16.20;99.90
17092;DHT22;8661;45.700;4.880;2023-11-19T12:06:03;16.10;99.90
17092;DHT22;8661;45.700;4.880;2023-11-19T12:08:30;16.20;99.90
17092;DHT22;8661;45.700;4.880;2023-11-19T12:10:58;16.20;99.90
17092;DHT22;8661;45.700;4.880;2023-11-19T12:13:42;16.30;99.90
17092;DHT22;8661;45.700;4.880;2023-11-19T12:16:13;16.40;99.90
17092;DHT22;8661;45.700;4.880;2023-11-19T12:18:42;16.60;99.90
17092;DHT22;8661;45.700;4.880;2023-11-19T12:21:11;16.80;99.90
17092;DHT22;8661;45.700;4.880;2023-11-19T12:23:54;17.10;99.90
17092;DHT22;8661;45.700;4.880;2023-11-19T12:26:30;17.40;99.90
17092;DHT22;8661;45.700;4.880;2023-11-19T12:28:58;17.50;99.90
17092;DHT22;8661;45.700;4.880;2023-11-19T12:31:25;17.70;99.90
17092;DHT22;8661;45.700;4.880;2023-11-19T12:33:52;17.90;99.90
17092;DHT22;8661;45.700;4.880;2023-11-19T12:36:21;18.10;99.90
17092;DHT22;8661;45.700;4.880;2023-11-19T12:38:48;18.20;99.90
17092;DHT22;8661;45.700;4.880;2023-11-19T12:41:16;18.80;99.80
17092;DHT22;8661;45.700;4.880;2023-11-19T12:43:46;19.00;99.00
17092;DHT22;8661;45.700;4.880;2023-11-19T12:46:20;19.00;98.70
17092;DHT22;8661;45.700;4.880;2023-11-19T12:48:47;19.40;98.30
17092;DHT22;8661;45.700;4.880;2023-11-19T12:51:14;20.20;96.60
17092;DHT22;8661;45.700;4.880;2023-11-19T12:53:49;20.90;95.60
17092;DHT22;8661;45.700;4.880;2023-11-19T12:56:18;21.20;93.90
17092;DHT22;8661;45.700;4.880;2023-11-19T12:58:45;21.40;93.40
17092;DHT22;8661;45.700;4.880;2023-11-19T13:01:16;21.00;93.60
17092;DHT22;8661;45.700;4.880;2023-11-19T13:03:44;20.40;93.50
17092;DHT22;8661;45.700;4.880;2023-11-19T13:06:13;20.10;94.20
17092;DHT22;8661;45.700;4.880;2023-11-19T13:08:42;20.00;94.30
17092;DHT22;8661;45.700;4.880;2023-11-19T13:11:12;19.90;94.40
17092;DHT22;8661;45.700;4.880;2023-11-19T13:13:55;20.00;94.60
17092;DHT22;8661;45.700;4.880;2023-11-19T13:16:22;20.10;94.10
17092;DHT22;8661;45.700;4.880;2023-11-19T13:18:49;20.40;94.20
17092;DHT22;8661;45.700;4.880;2023-11-19T13:21:18;20.90;93.60
17092;DHT22;8661;45.700;4.880;2023-11-19T13:23:46;21.60;92.80
17092;DHT22;8661;45.700;4.880;2023-11-19T13:26:14;22.40;91.30
17092;DHT22;8661;45.700;4.880;2023-11-19T13:28:41;22.80;90.40
17092;DHT22;8661;45.700;4.880;2023-11-19T13:31:08;23.00;89.80
17092;DHT22;8661;45.700;4.880;2023-11-19T13:33:36;23.00;89.90
17092;DHT22;8661;45.700;4.880;2023-11-19T13:36:03;23.00;89.60
17092;DHT22;8661;45.700;4.880;2023-11-19T13:38:33;22.50;90.10
17092;DHT22;8661;45.700;4.880;2023-11-19T13:41:01;22.10;90.40
17092;DHT22;8661;45.700;4.880;2023-11-19T13:43:29;21.60;91.40
17092;DHT22;8661;45.700;4.880;2023-11-19T13:45:57;21.00;91.90
17092;DHT22;8661;45.700;4.880;2023-11-19T13:48:24;20.60;92.40
17092;DHT22;8661;45.700;4.880;2023-11-19T13:50:52;20.30;92.80
17092;DHT22;8661;45.700;4.880;2023-11-19T13:53:19;20.10;93.60
17092;DHT22;8661;45.700;4.880;2023-11-19T13:55:46;20.00;94.40
17092;DHT22;8661;45.700;4.880;2023-11-19T13:58:13;19.90;95.20
17092;DHT22;8661;45.700;4.880;2023-11-19T14:00:42;19.70;95.50
17092;DHT22;8661;45.700;4.880;2023-11-19T14:03:09;19.40;96.10
17092;DHT22;8661;45.700;4.880;2023-11-19T14:05:37;19.20;96.80
17092;DHT22;8661;45.700;4.880;2023-11-19T14:08:04;19.00;97.40
17092;DHT22;8661;45.700;4.880;2023-11-19T14:10:37;19.00;97.90
17092;DHT22;8661;45.700;4.880;2023-11-19T14:13:05;18.80;98.10
17092;DHT22;8661;45.700;4.880;2023-11-19T14:15:32;18.80;98.40
17092;DHT22;8661;45.700;4.880;2023-11-19T14:18:01;18.70;98.30
17092;DHT22;8661;45.700;4.880;2023-11-19T14:20:28;18.60;98.70
17092;DHT22;8661;45.700;4.880;2023-11-19T14:22:55;18.40;99.10
17092;DHT22;8661;45.700;4.880;2023-11-19T14:25:22;18.20;99.50
17092;DHT22;8661;45.700;4.880;2023-11-19T14:27:49;18.10;99.90
17092;DHT22;8661;45.700;4.880;2023-11-19T14:30:16;17.90;99.90
17092;DHT22;8661;45.700;4.880;2023-11-19T14:32:44;17.80;99.90
17092;DHT22;8661;45.700;4.880;2023-11-19T14:35:13;17.70;99.90
17092;DHT22;8661;45.700;4.880;2023-11-19T14:37:40;17.60;99.90
17092;DHT22;8661;45.700;4.880;2023-11-19T14:40:07;17.50;99.90
17092;DHT22;8661;45.700;4.880;2023-11-19T14:42:36;17.50;99.90
17092;DHT22;8661;45.700;4.880;2023-11-19T14:45:05;17.30;99.90
17092;DHT22;8661;45.700;4.880;2023-11-19T14:47:32;17.10;99.90
17092;DHT22;8661;45.700;4.880;2023-11-19T14:49:59;16.90;99.90
17092;DHT22;8661;45.700;4.880;2023-11-19T14:52:27;16.80;99.90
17092;DHT22;8661;45.700;4.880;2023-11-19T14:54:54;16.70;99.90
17092;DHT22;8661;45.700;4.880;2023-11-19T14:57:22;16.50;99.90
17092;DHT22;8661;45.700;4.880;2023-11-19T14:59:49;16.30;99.90
17092;DHT22;8661;45.700;4.880;2023-11-19T15:02:18;16.20;99.90
17092;DHT22;8661;45.700;4.880;2023-11-19T15:04:45;16.20;99.90
17092;DHT22;8661;45.700;4.880;2023-11-19T15:07:12;16.10;99.90
17092;DHT22;8661;45.700;4.880;2023-11-19T15:09:40;16.10;99.90
17092;DHT22;8661;45.700;4.880;2023-11-19T15:12:07;16.00;99.90
17092;DHT22;8661;45.700;4.880;2023-11-19T15:14:37;15.90;99.90
17092;DHT22;8661;45.700;4.880;2023-11-19T15:17:04;15.80;99.90
17092;DHT22;8661;45.700;4.880;2023-11-19T15:19:32;15.70;99.90
17092;DHT22;8661;45.700;4.880;2023-11-19T15:21:59;15.60;99.90
17092;DHT22;8661;45.700;4.880;2023-11-19T15:24:30;15.60;99.90
17092;DHT22;8661;45.700;4.880;2023-11-19T15:26:58;15.60;99.90
17092;DHT22;8661;45.700;4.880;2023-11-19T15:29:25;15.60;99.90
17092;DHT22;8661;45.700;4.880;2023-11-19T15:31:52;15.60;99.90
17092;DHT22;8661;45.700;4.880;2023-11-19T15:34:19;15.60;99.90
17092;DHT22;8661;45.700;4.880;2023-11-19T15:36:46;15.60;99.90
17092;DHT22;8661;45.700;4.880;2023-11-19T15:39:13;15.60;99.90
17092;DHT22;8661;45.700;4.880;2023-11-19T15:41:40;15.60;99.90
17092;DHT22;8661;45.700;4.880;2023-11-19T15:44:08;15.60;99.90
17092;DHT22;8661;45.700;4.880;2023-11-19T15:46:36;15.50;99.90
17092;DHT22;8661;45.700;4.880;2023-11-19T15:49:06;15.40;99.90
17092;DHT22;8661;45.700;4.880;2023-11-19T15:51:33;15.40;99.90
17092;DHT22;8661;45.700;4.880;2023-11-19T15:54:00;15.30;99.90
17092;DHT22;8661;45.700;4.880;2023-11-19T15:56:27;15.30;99.90
17092;DHT22;8661;45.700;4.880;2023-11-19T15:58:56;15.20;99.90
17092;DHT22;8661;45.700;4.880;2023-11-19T16:01:24;15.20;99.90
17092;DHT22;8661;45.700;4.880;2023-11-19T16:03:53;15.20;99.90